Flight Track Log - Related Links

Times and Time Zones

All times are in EDT time to prevent confusion due to time zone crossing. See the JBU1329 flight status page for this flight to view local times or setup timezone preferences in your user account.

Time Position Orientation Groundspeed Altitude Reporting Facility
EDT Latitude Longitude Course Direction KTS km/h feet Rate Location/Type
Tue 08:17:27 42.3667 -70.9833 265° West 133 246 900  Level KA90
Tue 08:18:21 42.3667 -70.9333 90° East 173 320 2.400 2.263 Climbing KA90
Tue 08:19:21 42.3833 -70.8500 75° East 226 418 5.200 2.850 Climbing KA90
Tue 08:20:00 42.1376 -71.3222 258° West  Level FlightAware Approximate
Tue 08:20:21 42.3833 -70.7500 90° East 273 505 8.100  Level KA90
Tue 08:21:00 42.1166 -71.4003 265° West  Level FlightAware Approximate
Tue 08:21:21 42.3167 -70.7167 160° South 276 512 11.500  Level KA90
Tue 08:22:00 42.1108 -71.4834 265° West  Level FlightAware Approximate
Tue 08:22:03 42.2689 -70.7400 200° South 302 560 12.700  Level Boston Center
Tue 08:23:03 42.2100 -70.8536 235° Southwest 297 550 15.500 2.650 Climbing Boston Center
Tue 08:24:03 42.1908 -70.9772 258° West 311 576 18.000 2.150 Climbing Boston Center
Tue 08:25:03 42.1778 -71.1036 262° West 344 637 19.800 2.100 Climbing Boston Center
Tue 08:26:03 42.1586 -71.2386 259° West 365 676 22.200 2.250 Climbing Boston Center
Tue 08:27:03 42.1392 -71.3789 259° West 377 698 24.300 1.800 Climbing Boston Center
Tue 08:28:03 42.1256 -71.4911 261° West 382 708 25.800 1.850 Climbing Boston Center
Tue 08:29:03 42.0956 -71.6594 257° West 382 708 28.000 2.000 Climbing Boston Center
Tue 08:30:03 42.0733 -71.7997 258° West 388 719 29.800 1.800 Climbing Boston Center
Tue 08:31:03 42.0533 -71.9397 259° West 393 727 31.600 1.100 Climbing Boston Center
Tue 08:32:03 42.0331 -72.0794 259° West 393 727 32.000 200 Climbing Boston Center
Tue 08:33:03 42.0106 -72.2222 258° West 393 727 32.000  Level Boston Center
Tue 08:34:03 41.9897 -72.3675 259° West 393 727 32.000  Level Boston Center
Tue 08:35:03 41.9439 -72.4986 245° Southwest 382 708 32.000  Level Boston Center
Tue 08:36:03 41.8792 -72.6103 232° Southwest 382 708 32.000  Level Boston Center
Tue 08:37:03 41.8167 -72.7103 230° Southwest 376 697 32.000  Level Boston Center
Tue 08:38:03 41.7433 -72.8381 232° Southwest 387 716 32.000  Level Boston Center
Tue 08:39:03 41.6739 -72.9458 229° Southwest 387 716 32.000  Level Boston Center
Tue 08:40:03 41.6089 -73.0536 231° Southwest 387 716 32.000 -400 Level Boston Center
Tue 08:41:03 41.5436 -73.1611 231° Southwest 387 716 31.200 -888 Descending Boston Center
Tue 08:42:52 41.4314 -73.3419 230° Southwest 378 700 29.500 -953 Descending New York Center
Tue 08:43:53 41.3644 -73.4497 230° Southwest 378 700 28.500 -750 Descending New York Center
Tue 08:44:52 41.2997 -73.5550 231° Southwest 378 700 28.000 -252 Descending New York Center
Tue 08:45:52 41.2367 -73.6628 232° Southwest 378 700 28.000  Level New York Center
Tue 08:46:53 41.1714 -73.7700 231° Southwest 378 700 28.000 -101 Level New York Center
Tue 08:47:51 41.1083 -73.8775 232° Southwest 378 700 27.800 -610 Descending New York Center
Tue 08:48:51 41.0450 -73.9817 231° Southwest 378 700 26.800 -992 Descending New York Center
Tue 08:49:52 40.9817 -74.0914 233° Southwest 378 700 25.800 -976 Descending New York Center
Tue 08:50:54 40.9139 -74.1981 230° Southwest 378 700 24.800 -908 Descending New York Center
Tue 08:51:51 40.8483 -74.3044 231° Southwest 378 700 24.000 -410 Descending New York Center
Tue 08:52:51 40.7847 -74.4106 232° Southwest 378 700 24.000  Level New York Center
Tue 08:53:52 40.7208 -74.5167 232° Southwest 383 710 24.000  Level New York Center
Tue 08:54:52 40.6569 -74.6253 232° Southwest 383 710 24.000  Level New York Center
Tue 08:55:53 40.5911 -74.7283 230° Southwest 383 710 24.000 -454 Level New York Center
Tue 08:56:51 40.5231 -74.8308 229° Southwest 383 710 23.100 -1.059 Descending New York Center
Tue 08:57:52 40.4531 -74.9275 226° Southwest 383 710 21.900 -1.190 Descending New York Center
Tue 08:58:52 40.3828 -75.0269 227° Southwest 377 698 20.700 -1.190 Descending New York Center
Tue 08:59:53 40.3147 -75.1233 227° Southwest 377 698 19.500 -1.240 Descending New York Center
Tue 09:00:53 40.2442 -75.2222 227° Southwest 377 698 18.200 -750 Descending New York Center
Tue 09:01:53 40.1650 -75.3314 227° Southwest 377 698 18.000 -102 Descending New York Center
Tue 09:02:51 40.1011 -75.4167 226° Southwest 377 698 18.000  Level New York Center
Tue 09:03:51 40.0242 -75.5200 226° Southwest 377 698 18.000  Level New York Center
Tue 09:04:52 39.9644 -75.6053 228° Southwest 367 679 18.000 -496 Level New York Center
Tue 09:05:52 39.8931 -75.7167 230° Southwest 367 679 17.000 -1.000 Descending New York Center
Tue 09:06:52 39.8453 -75.8133 237° Southwest 362 671 16.000 -1.611 Descending New York Center
Tue 09:08:47 39.7333 -76.0167 234° Southwest 331 613 12.300 -1.406 Descending Potomac TRACON
Tue 09:09:47 39.6833 -76.1167 237° Southwest 294 544 11.900 -1.234 Descending Potomac TRACON
Tue 09:11:00 39.6146 -76.2375 237° Southwest  Level FlightAware Approximate
Tue 09:11:42 39.6000 -76.2667 237° Southwest 284 526 8.700  Level Potomac TRACON
Tue 09:12:48 39.5667 -76.3667 247° West 280 518 8.000 -429 Descending Potomac TRACON
Tue 09:13:48 39.5167 -76.4500 232° Southwest 277 513 7.800 -900 Descending Potomac TRACON
Tue 09:14:48 39.4833 -76.5333 243° Southwest 274 507 6.200 -1.368 Descending Potomac TRACON
Tue 09:15:42 39.4500 -76.6000 237° Southwest 257 476 5.200 -1.158 Descending Potomac TRACON
Tue 09:16:42 39.4000 -76.6833 232° Southwest 256 475 4.000 -600 Descending Potomac TRACON
Tue 09:17:42 39.3667 -76.7500 237° Southwest 223 414 4.000 -248 Level Potomac TRACON
Tue 09:18:43 39.3333 -76.8167 237° Southwest 218 404 3.500 -496 Descending Potomac TRACON
Tue 09:19:43 39.3000 -76.8833 237° Southwest 202 373 3.000 -250 Descending Potomac TRACON
Tue 09:20:43 39.2833 -76.9500 252° West 189 349 3.000 -250 Level Potomac TRACON
Tue 09:21:43 39.2500 -76.9833 218° Southwest 180 333 2.500 -526 Descending Potomac TRACON
Tue 09:22:37 39.2167 -76.9500 142° Southeast 171 317 2.000 -278 Descending Potomac TRACON
Tue 09:23:31 39.1833 -76.9000 131° Southeast 169 312 2.000  Level Potomac TRACON
Tue 09:24:31 39.1833 -76.8500 90° East 165 306 2.000 -157 Level Potomac TRACON
Tue 09:25:26 39.1833 -76.8000 90° East 165 306 1.700 -522 Descending Potomac TRACON
Tue 09:26:26 39.1833 -76.7500 90° East 124 230 1.000 -700 Descending Potomac TRACON
Tue 09:27:26 39.1833 -76.7000 90° East 124 230 300 -700 Descending Potomac TRACON

Login

Don't have an account? Register now (free) for customized features, flight alerts, and more!